Disclaimer

Please do not use the information listed here in-flight or in-navigation, as they are not provided to us by the airports but are provided by volunteers, so they might be outdated.

Search


Regions


Airport information page

Radio informations:
Tower (TWR) - 122.1 MHz
Ground (GND) - 118.1 MHz
Approach (APP) - 121.1 MHz
A/G VOICE RDO - 7595 MHz

Airport informations:
Latitude: 11° 32' 50.39" N
Longitude: 043° 09' 34.13" E
Elevation: 49 feet - 15 meters
Operating hours: 24 hour operations
Operating agency: Military-civil joint use airport
Timezone: UTC+3
Fuel: Jet A1, without icing nhibitor.

100/130 MIL Spec, low lead, aviation gasoline (BLUE)

Runway information:
09/27 - 10335 x 150 feet< - >3150 x 46 meters

Recent METARs:
HDAM 131500Z 10007KT 9999 FEW023 29/22 Q1013
HDAM 131500Z 10007KT 9999 FEW023 29/22 Q1013
HDAM 131600Z 11006KT 9999 FEW023 27/21 Q1013

Airport on the map: